Time;durP1;ratioP1;P1;durP2;ratioP2;P2;SDS_P1;SDS_P2;PMS_P1;PMS_P2;Temp;Humidity;BMP_temperature;BMP_pressure;BME280_temperature;BME280_humidity;BME280_pressure;Samples;Min_cycle;Max_cycle;Signal;HPM_P1;HPM_P2
2022/06/28 00:01:45;;;;;;;;;;;;;;;15.05;100.00;101972.44;5254687;28;20175;-68
2022/06/28 00:04:17;;;;;;;;;;;;;;;15.03;100.00;101969.06;5252689;28;20027;-69
2022/06/28 00:06:48;;;;;;;;;;;;;;;15.00;100.00;101968.50;5253676;28;19909;-68
2022/06/28 00:09:19;;;;;;;;;;;;;;;14.96;100.00;101970.56;5251858;28;19975;-69
2022/06/28 00:11:51;;;;;;;;;;;;;;;14.93;100.00;101965.56;5252125;28;19952;-68
2022/06/28 00:17:12;;;;;;;;;;;;;;;14.88;100.00;101965.09;5254124;28;19909;-68
2022/06/28 00:19:43;;;;;;;;;;;;;;;14.86;100.00;101968.88;5255878;28;19916;-69
2022/06/28 00:22:14;;;;;;;;;;;;;;;14.82;100.00;101973.56;5254422;28;20289;-69
2022/06/28 00:24:45;;;;;;;;;;;;;;;14.78;100.00;101972.97;5256524;28;19923;-68
2022/06/28 00:27:18;;;;;;;;;;;;;;;14.76;100.00;101977.53;5256578;28;19969;-69
2022/06/28 00:29:49;;;;;;;;;;;;;;;14.75;100.00;101975.03;5259030;28;20608;-68
2022/06/28 00:32:20;;;;;;;;;;;;;;;14.72;100.00;101981.41;5257584;28;20266;-68
2022/06/28 00:34:51;;;;;;;;;;;;;;;14.71;100.00;101982.38;5258303;28;20013;-68
2022/06/28 00:37:23;;;;;;;;;;;;;;;14.68;100.00;101985.25;5257388;28;19912;-68
2022/06/28 00:39:54;;;;;;;;;;;;;;;14.66;100.00;101984.56;5258623;28;19920;-69
2022/06/28 00:42:25;;;;;;;;;;;;;;;14.62;100.00;101985.78;5258012;28;19920;-68
2022/06/28 00:44:58;;;;;;;;;;;;;;;14.58;100.00;101984.34;5239992;28;19916;-68
2022/06/28 00:47:29;;;;;;;;;;;;;;;14.53;100.00;101989.19;5259014;28;19917;-68
2022/06/28 00:50:01;;;;;;;;;;;;;;;14.48;100.00;101989.53;5257544;28;19924;-69
2022/06/28 00:52:32;;;;;;;;;;;;;;;14.46;100.00;101990.63;5257718;28;20521;-69
2022/06/28 00:55:03;;;;;;;;;;;;;;;14.44;100.00;101985.50;5255974;28;19912;-68
2022/06/28 00:57:35;;;;;;;;;;;;;;;14.43;100.00;101991.72;5257795;28;19924;-68
2022/06/28 01:00:06;;;;;;;;;;;;;;;14.44;100.00;101984.66;5257306;28;19912;-69
2022/06/28 01:02:37;;;;;;;;;;;;;;;14.43;100.00;101983.78;5256610;28;20041;-68
2022/06/28 01:05:09;;;;;;;;;;;;;;;14.41;100.00;101980.47;5257342;28;19919;-68
2022/06/28 01:07:40;;;;;;;;;;;;;;;14.42;100.00;101989.22;5256317;28;19913;-69
2022/06/28 01:10:11;;;;;;;;;;;;;;;14.40;100.00;101991.16;5254471;28;19995;-68
2022/06/28 01:12:42;;;;;;;;;;;;;;;14.41;100.00;101984.91;5257582;28;19913;-69
2022/06/28 01:15:13;;;;;;;;;;;;;;;14.40;100.00;101991.16;5257642;28;19967;-68
2022/06/28 01:17:45;;;;;;;;;;;;;;;14.38;100.00;101985.16;5255442;28;19919;-68
2022/06/28 01:20:16;;;;;;;;;;;;;;;14.35;100.00;101991.50;5257082;28;19916;-69
2022/06/28 01:22:47;;;;;;;;;;;;;;;14.32;100.00;101995.25;5237117;28;19960;-68
2022/06/28 01:25:19;;;;;;;;;;;;;;;14.30;100.00;101994.53;5257471;28;20555;-69
2022/06/28 01:27:51;;;;;;;;;;;;;;;14.29;100.00;102000.78;5256238;28;20301;-68
2022/06/28 01:30:23;;;;;;;;;;;;;;;14.27;100.00;102002.69;5257356;28;19924;-69
2022/06/28 01:32:54;;;;;;;;;;;;;;;14.23;100.00;101996.00;5256787;28;20349;-68
2022/06/28 01:35:25;;;;;;;;;;;;;;;14.20;100.00;101998.88;5256398;28;19908;-68
2022/06/28 01:37:57;;;;;;;;;;;;;;;14.19;100.00;101991.94;5257421;28;19924;-68
2022/06/28 01:40:28;;;;;;;;;;;;;;;14.19;100.00;101996.38;5256495;28;19928;-69
2022/06/28 01:43:00;;;;;;;;;;;;;;;14.17;100.00;102000.94;5257709;28;19924;-67
2022/06/28 01:45:31;;;;;;;;;;;;;;;14.17;100.00;101999.16;5256365;28;19928;-68
2022/06/28 01:48:03;;;;;;;;;;;;;;;14.14;100.00;102004.66;5256921;28;19920;-68
2022/06/28 01:50:34;;;;;;;;;;;;;;;14.12;100.00;102004.78;5256743;28;19913;-68
2022/06/28 01:53:05;;;;;;;;;;;;;;;14.10;100.00;102008.50;5257186;28;19917;-69
2022/06/28 01:55:36;;;;;;;;;;;;;;;14.07;100.00;102006.13;5255121;28;19913;-68
2022/06/28 01:58:08;;;;;;;;;;;;;;;14.04;100.00;102007.19;5254021;28;20580;-68
2022/06/28 02:00:40;;;;;;;;;;;;;;;14.03;100.00;102015.25;5254208;28;19970;-68
2022/06/28 02:03:11;;;;;;;;;;;;;;;14.01;100.00;102009.25;5256347;28;19921;-69
2022/06/28 02:05:42;;;;;;;;;;;;;;;13.98;100.00;102014.75;5253247;28;19920;-67
2022/06/28 02:08:13;;;;;;;;;;;;;;;13.96;100.00;102014.88;5255970;28;20328;-68
2022/06/28 02:10:44;;;;;;;;;;;;;;;13.94;100.00;102010.69;5253606;28;19926;-68
2022/06/28 02:13:16;;;;;;;;;;;;;;;13.91;100.00;102017.06;5255469;28;19912;-69
2022/06/28 02:15:47;;;;;;;;;;;;;;;13.87;100.00;102011.22;5256412;28;20336;-68
2022/06/28 02:18:18;;;;;;;;;;;;;;;13.87;100.00;102019.09;5256746;28;20003;-67
2022/06/28 02:20:49;;;;;;;;;;;;;;;13.85;100.00;102020.19;5256101;28;19913;-69
2022/06/28 02:23:20;;;;;;;;;;;;;;;13.82;100.00;102018.63;5256591;28;20911;-68
2022/06/28 02:25:51;;;;;;;;;;;;;;;13.80;100.00;102023.19;5255734;28;19923;-69
2022/06/28 02:28:23;;;;;;;;;;;;;;;13.77;100.00;102025.22;5253837;28;20468;-68
2022/06/28 02:30:54;;;;;;;;;;;;;;;13.73;100.00;102031.69;5256674;28;19920;-69
2022/06/28 02:33:25;;;;;;;;;;;;;;;13.69;100.00;102031.09;5255653;28;19913;-68
2022/06/28 02:41:36;;;;;;;;;;;;;;;13.65;100.00;102037.56;5256619;28;20365;-69
2022/06/28 02:44:07;;;;;;;;;;;;;;;13.63;100.00;102042.09;5254920;28;19920;-68
2022/06/28 02:46:39;;;;;;;;;;;;;;;13.60;100.00;102043.22;5255277;28;19920;-68
2022/06/28 02:49:10;;;;;;;;;;;;;;;13.60;100.00;102050.28;5253277;28;19917;-68
2022/06/28 02:51:41;;;;;;;;;;;;;;;13.60;100.00;102055.53;5253909;28;20277;-67
2022/06/28 02:54:12;;;;;;;;;;;;;;;13.59;100.00;102059.09;5254978;28;19979;-68
2022/06/28 02:56:44;;;;;;;;;;;;;;;13.57;100.00;102056.59;5253799;28;19916;-68
2022/06/28 02:59:16;;;;;;;;;;;;;;;13.55;100.00;102068.22;5253656;28;19927;-68
2022/06/28 03:01:47;;;;;;;;;;;;;;;13.53;100.00;102070.97;5253663;28;19913;-68
2022/06/28 03:04:18;;;;;;;;;;;;;;;13.52;100.00;102071.06;5254412;28;19920;-68
2022/06/28 03:06:49;;;;;;;;;;;;;;;13.50;100.00;102067.75;5254480;28;19916;-68
2022/06/28 03:09:20;;;;;;;;;;;;;;;13.48;100.00;102067.84;5253585;28;19955;-69
2022/06/28 03:11:52;;;;;;;;;;;;;;;13.48;100.00;102069.63;5254863;28;19920;-67
2022/06/28 03:14:23;;;;;;;;;;;;;;;13.44;100.00;102076.94;5256164;28;19909;-67
2022/06/28 03:16:54;;;;;;;;;;;;;;;13.39;100.00;102079.09;5253396;28;19928;-68
2022/06/28 03:19:25;;;;;;;;;;;;;;;13.36;100.00;102080.16;5255692;28;19916;-67
2022/06/28 03:21:56;;;;;;;;;;;;;;;13.32;100.00;102078.72;5251705;28;20015;-68
2022/06/28 03:24:28;;;;;;;;;;;;;;;13.32;100.00;102083.16;5255939;28;19924;-69
2022/06/28 03:26:59;;;;;;;;;;;;;;;13.26;100.00;102084.47;5237229;28;19919;-69
2022/06/28 03:29:30;;;;;;;;;;;;;;;13.25;100.00;102082.78;5253440;28;19916;-69
2022/06/28 03:32:01;;;;;;;;;;;;;;;13.24;100.00;102089.00;5253761;28;19994;-67
2022/06/28 03:34:33;;;;;;;;;;;;;;;13.13;100.00;102070.53;5254386;28;20021;-68
2022/06/28 03:37:04;;;;;;;;;;;;;;;13.25;100.00;102092.47;5254422;28;19923;-68
2022/06/28 03:39:35;;;;;;;;;;;;;;;13.23;100.00;102091.72;5253576;28;19967;-68
2022/06/28 03:42:06;;;;;;;;;;;;;;;13.23;100.00;102095.22;5254835;28;19916;-67
2022/06/28 03:44:38;;;;;;;;;;;;;;;13.23;100.00;102097.84;5253179;28;20297;-66
2022/06/28 03:47:09;;;;;;;;;;;;;;;13.22;100.00;102101.41;5252701;28;19916;-68
2022/06/28 03:49:40;;;;;;;;;;;;;;;13.24;100.00;102099.53;5253164;28;19916;-68
2022/06/28 03:52:11;;;;;;;;;;;;;;;13.23;100.00;102105.75;5254415;28;20297;-69
2022/06/28 03:54:42;;;;;;;;;;;;;;;13.20;100.00;102098.06;5255539;28;19919;-67
2022/06/28 03:57:14;;;;;;;;;;;;;;;13.20;100.00;102095.41;5252883;28;20278;-68
2022/06/28 03:59:45;;;;;;;;;;;;;;;13.19;100.00;102093.75;5255406;28;19920;-68
2022/06/28 04:02:16;;;;;;;;;;;;;;;13.19;100.00;102099.03;5255540;28;20015;-69
2022/06/28 04:04:47;;;;;;;;;;;;;;;13.22;100.00;102100.56;5257928;28;19923;-68
2022/06/28 04:07:19;;;;;;;;;;;;;;;13.25;100.00;102097.72;5256182;28;19970;-68
2022/06/28 04:09:50;;;;;;;;;;;;;;;13.24;100.00;102096.91;5259448;28;19908;-68
2022/06/28 04:12:21;;;;;;;;;;;;;;;13.25;100.00;102106.47;5257169;28;19917;-68
2022/06/28 04:14:52;;;;;;;;;;;;;;;13.25;100.00;102103.81;5259287;28;19912;-69
2022/06/28 04:17:23;;;;;;;;;;;;;;;13.27;100.00;102101.09;5257650;28;19913;-68
2022/06/28 04:19:55;;;;;;;;;;;;;;;13.24;100.00;102098.69;5257249;28;19947;-68
2022/06/28 04:22:26;;;;;;;;;;;;;;;13.26;100.00;102102.91;5257411;28;19932;-68
2022/06/28 04:24:57;;;;;;;;;;;;;;;13.26;100.00;102104.66;5259490;28;19959;-68
2022/06/28 04:27:28;;;;;;;;;;;;;;;13.27;100.00;102098.47;5257308;28;19927;-69
2022/06/28 04:29:59;;;;;;;;;;;;;;;13.27;100.00;102096.66;5241279;28;20381;-68
2022/06/28 04:32:31;;;;;;;;;;;;;;;13.30;100.00;102103.50;5257810;28;20288;-68
2022/06/28 04:35:02;;;;;;;;;;;;;;;13.32;100.00;102107.66;5257515;28;19939;-68
2022/06/28 04:37:33;;;;;;;;;;;;;;;13.33;100.00;102111.13;5256951;28;19916;-68
2022/06/28 04:40:04;;;;;;;;;;;;;;;13.35;100.00;102110.06;5257961;28;19917;-69
2022/06/28 04:42:36;;;;;;;;;;;;;;;13.39;100.00;102103.63;5257966;28;19967;-67
2022/06/28 04:45:07;;;;;;;;;;;;;;;13.41;100.00;102100.88;5258455;28;19909;-69
2022/06/28 04:47:38;;;;;;;;;;;;;;;13.45;100.00;102097.06;5256864;28;19917;-68
2022/06/28 04:50:10;;;;;;;;;;;;;;;13.48;100.00;102103.88;5258631;28;20004;-68
2022/06/28 04:52:41;;;;;;;;;;;;;;;13.52;100.00;102100.03;5256593;28;19995;-68
2022/06/28 04:55:12;;;;;;;;;;;;;;;13.55;100.00;102105.91;5257845;28;19947;-69
2022/06/28 04:57:43;;;;;;;;;;;;;;;13.58;100.00;102105.66;5291664;22;19920;-70
2022/06/28 05:00:15;;;;;;;;;;;;;;;13.64;100.00;102112.28;5273982;28;19919;-69
2022/06/28 05:02:46;;;;;;;;;;;;;;;13.69;100.00;102102.22;5295268;28;20372;-69
2022/06/28 05:05:17;;;;;;;;;;;;;;;13.73;100.00;102114.19;5298005;28;19939;-69
2022/06/28 05:07:48;;;;;;;;;;;;;;;13.78;100.00;102111.19;5297729;28;19915;-70
2022/06/28 05:10:19;;;;;;;;;;;;;;;13.84;100.00;102121.25;5294901;28;19912;-69
2022/06/28 05:12:51;;;;;;;;;;;;;;;13.88;100.00;102125.31;5278148;28;19920;-70
2022/06/28 05:15:22;;;;;;;;;;;;;;;13.93;100.00;102120.50;5294154;28;19969;-69
2022/06/28 05:17:53;;;;;;;;;;;;;;;13.98;100.00;102118.38;5296909;28;19963;-69
2022/06/28 05:20:24;;;;;;;;;;;;;;;14.04;100.00;102109.13;5275024;28;19911;-70
2022/06/28 05:22:56;;;;;;;;;;;;;;;14.09;100.00;102114.88;5297333;28;19920;-70
2022/06/28 05:25:27;;;;;;;;;;;;;;;14.14;100.00;102114.53;5296331;28;19981;-70
2022/06/28 05:27:58;;;;;;;;;;;;;;;14.20;100.00;102109.56;5298116;28;19916;-70
2022/06/28 05:30:29;;;;;;;;;;;;;;;14.22;100.00;102109.47;5295726;28;19923;-70
2022/06/28 05:33:03;;;;;;;;;;;;;;;14.28;100.00;102108.97;5298345;28;19916;-70
2022/06/28 05:35:34;;;;;;;;;;;;;;;14.33;100.00;102106.81;5299085;28;20372;-70
2022/06/28 05:38:06;;;;;;;;;;;;;;;14.37;100.00;102108.25;5296262;28;19919;-69
2022/06/28 05:40:37;;;;;;;;;;;;;;;14.42;100.00;102100.78;5298148;28;20288;-70
2022/06/28 05:43:08;;;;;;;;;;;;;;;14.49;100.00;102101.13;5297924;28;19912;-70
2022/06/28 05:45:39;;;;;;;;;;;;;;;14.55;100.00;102105.94;5297494;28;19916;-71
2022/06/28 05:48:11;;;;;;;;;;;;;;;14.60;100.00;102098.47;5297519;28;19965;-70
2022/06/28 05:50:42;;;;;;;;;;;;;;;14.69;100.00;102091.59;5294623;28;20245;-70
2022/06/28 05:53:13;;;;;;;;;;;;;;;14.73;100.00;102090.38;5297951;28;19986;-70
2022/06/28 05:55:44;;;;;;;;;;;;;;;14.79;100.00;102093.38;5296613;28;19916;-70
2022/06/28 05:58:16;;;;;;;;;;;;;;;14.88;100.00;102088.28;5296709;28;20280;-70
2022/06/28 06:00:48;;;;;;;;;;;;;;;14.96;100.00;102088.47;5289351;28;19919;-69
2022/06/28 06:03:19;;;;;;;;;;;;;;;15.03;100.00;102081.72;5297027;28;20040;-70
2022/06/28 06:05:50;;;;;;;;;;;;;;;15.11;100.00;102092.47;5295098;28;19924;-69
2022/06/28 06:08:21;;;;;;;;;;;;;;;15.20;100.00;102091.72;5295796;28;19935;-70
2022/06/28 06:10:53;;;;;;;;;;;;;;;15.29;100.00;102096.19;5295743;28;20312;-69
2022/06/28 06:13:24;;;;;;;;;;;;;;;15.41;100.00;102096.13;5296376;28;19927;-69
2022/06/28 06:15:55;;;;;;;;;;;;;;;15.52;100.00;102093.41;5293071;28;20071;-70
2022/06/28 06:18:26;;;;;;;;;;;;;;;15.62;100.00;102101.38;5293604;28;19923;-69
2022/06/28 06:20:57;;;;;;;;;;;;;;;15.72;100.00;102097.84;5293654;28;20165;-70
2022/06/28 06:23:29;;;;;;;;;;;;;;;15.85;100.00;102097.59;5296155;28;19923;-70
2022/06/28 06:26:00;;;;;;;;;;;;;;;15.95;100.00;102108.22;5291216;28;20006;-70
2022/06/28 06:28:34;;;;;;;;;;;;;;;16.04;100.00;102102.13;5294480;28;19919;-70
2022/06/28 06:31:07;;;;;;;;;;;;;;;16.17;100.00;102110.63;5296118;28;19915;-69
2022/06/28 06:33:39;;;;;;;;;;;;;;;16.28;100.00;102101.75;5292142;28;20695;-69
2022/06/28 06:36:10;;;;;;;;;;;;;;;16.40;100.00;102102.44;5293926;28;19999;-70
2022/06/28 06:38:42;;;;;;;;;;;;;;;16.51;100.00;102105.81;5294212;28;19916;-72
2022/06/28 06:41:13;;;;;;;;;;;;;;;16.63;100.00;102109.19;5275083;28;20061;-69
2022/06/28 06:43:44;;;;;;;;;;;;;;;16.69;100.00;102113.91;5292554;28;19924;-70
2022/06/28 06:46:15;;;;;;;;;;;;;;;16.82;100.00;102107.50;5294543;28;19920;-71
2022/06/28 06:48:47;;;;;;;;;;;;;;;16.92;100.00;102116.28;5295503;28;19923;-69
2022/06/28 06:51:18;;;;;;;;;;;;;;;17.05;100.00;102114.19;5288981;28;19916;-71
2022/06/28 06:53:49;;;;;;;;;;;;;;;17.15;100.00;102109.72;5291044;28;19912;-70
2022/06/28 06:56:20;;;;;;;;;;;;;;;17.27;100.00;102120.97;5294726;28;19923;-71
2022/06/28 06:58:51;;;;;;;;;;;;;;;17.36;100.00;102122.78;5294386;28;20399;-71
2022/06/28 07:01:23;;;;;;;;;;;;;;;17.47;100.00;102117.31;5288935;28;19919;-71
2022/06/28 07:03:54;;;;;;;;;;;;;;;17.62;100.00;102124.81;5289618;28;20136;-71
2022/06/28 07:06:26;;;;;;;;;;;;;;;17.72;100.00;102122.94;5290439;28;19931;-70
2022/06/28 07:08:57;;;;;;;;;;;;;;;17.87;100.00;102125.97;5292674;28;19920;-70
2022/06/28 07:11:28;;;;;;;;;;;;;;;18.04;100.00;102125.19;5288395;28;19920;-69
2022/06/28 07:14:00;;;;;;;;;;;;;;;18.18;100.00;102130.00;5293356;28;19919;-70
2022/06/28 07:16:31;;;;;;;;;;;;;;;18.28;100.00;102127.28;5272663;28;20285;-70
2022/06/28 07:19:03;;;;;;;;;;;;;;;18.41;100.00;102125.13;5293441;28;19973;-70
2022/06/28 07:21:34;;;;;;;;;;;;;;;18.51;100.00;102122.38;5292028;28;19908;-69
2022/06/28 07:24:07;;;;;;;;;;;;;;;18.61;100.00;102127.63;5292250;28;19927;-70
2022/06/28 07:26:39;;;;;;;;;;;;;;;18.71;100.00;102128.41;5294020;28;19908;-70
2022/06/28 07:29:10;;;;;;;;;;;;;;;18.82;100.00;102127.34;5289812;28;19977;-69
2022/06/28 07:31:44;;;;;;;;;;;;;;;18.94;100.00;102123.44;5293149;28;20380;-69
2022/06/28 07:34:15;;;;;;;;;;;;;;;19.07;100.00;102123.88;5296431;28;19912;-69
2022/06/28 07:36:49;;;;;;;;;;;;;;;19.22;100.00;102129.47;5295041;28;19915;-70
2022/06/28 07:39:21;;;;;;;;;;;;;;;19.29;100.00;102119.06;5293860;28;20387;-70
2022/06/28 07:41:53;;;;;;;;;;;;;;;19.33;100.00;102131.06;5297150;28;19955;-70
2022/06/28 07:44:25;;;;;;;;;;;;;;;19.43;100.00;102124.66;5296561;28;20265;-70
2022/06/28 07:46:56;;;;;;;;;;;;;;;19.58;100.00;102119.56;5293138;28;19920;-69
2022/06/28 07:52:33;;;;;;;;;;;;;;;19.65;100.00;102125.94;5296816;28;20378;-69
2022/06/28 07:52:33;;;;;;;;;;;;;;;19.83;100.00;102119.72;5295693;28;19918;-71
2022/06/28 07:55:08;;;;;;;;;;;;;;;20.00;100.00;102121.47;5296271;28;19916;-71
2022/06/28 07:57:39;;;;;;;;;;;;;;;20.13;100.00;102118.34;5294621;28;19920;-69
2022/06/28 08:00:11;;;;;;;;;;;;;;;20.24;100.00;102119.84;5297000;28;19911;-70
2022/06/28 08:02:42;;;;;;;;;;;;;;;20.31;100.00;102120.88;5298470;28;20372;-69
2022/06/28 08:05:14;;;;;;;;;;;;;;;20.40;100.00;102107.41;5298131;28;19918;-70
2022/06/28 08:07:45;;;;;;;;;;;;;;;20.52;100.00;102110.63;5299493;28;19912;-70
2022/06/28 08:10:16;;;;;;;;;;;;;;;20.58;100.00;102112.63;5298669;28;19912;-69
2022/06/28 08:12:48;;;;;;;;;;;;;;;20.69;100.00;102119.47;5300358;28;19919;-70
2022/06/28 08:15:19;;;;;;;;;;;;;;;20.79;100.00;102114.78;5299600;28;19912;-70
2022/06/28 08:17:50;;;;;;;;;;;;;;;20.88;100.00;102110.31;5297419;28;19912;-69
2022/06/28 08:20:21;;;;;;;;;;;;;;;20.99;100.00;102109.16;5297464;28;19985;-71
2022/06/28 08:22:53;;;;;;;;;;;;;;;21.09;100.00;102099.94;5298155;28;19931;-71
2022/06/28 08:25:24;;;;;;;;;;;;;;;21.19;100.00;102098.94;5298483;28;19916;-71
2022/06/28 08:27:55;;;;;;;;;;;;;;;21.28;100.00;102090.75;5279631;28;20337;-71
2022/06/28 08:30:27;;;;;;;;;;;;;;;21.44;100.00;102091.75;5297154;28;19926;-71
2022/06/28 08:32:58;;;;;;;;;;;;;;;21.52;100.00;102092.56;5296904;28;20066;-70
2022/06/28 08:35:29;;;;;;;;;;;;;;;21.65;100.00;102091.19;5278168;28;19911;-70
2022/06/28 08:38:01;;;;;;;;;;;;;;;21.75;100.00;102089.97;5291150;28;20408;-70
2022/06/28 08:40:35;;;;;;;;;;;;;;;21.90;100.00;102087.41;5296441;28;19959;-70
2022/06/28 08:43:07;;;;;;;;;;;;;;;21.98;100.00;102089.22;5296686;28;20369;-69
2022/06/28 08:45:38;;;;;;;;;;;;;;;22.10;100.00;102074.44;5297662;28;19923;-70
2022/06/28 08:48:17;;;;;;;;;;;;;;;22.15;100.00;102073.94;5297015;28;19912;-71
2022/06/28 08:50:52;;;;;;;;;;;;;;;22.34;100.00;102070.81;5296630;28;19911;-73
2022/06/28 08:53:24;;;;;;;;;;;;;;;22.47;100.00;102073.72;5296183;28;19927;-71
2022/06/28 08:55:55;;;;;;;;;;;;;;;22.58;100.00;102070.63;5293043;28;19916;-71
2022/06/28 08:58:27;;;;;;;;;;;;;;;22.64;100.00;102073.59;5296054;28;19931;-71
2022/06/28 09:00:59;;;;;;;;;;;;;;;22.68;98.58;102077.56;5296606;28;19916;-71
2022/06/28 09:03:31;;;;;;;;;;;;;;;22.78;96.20;102075.47;5292366;28;19923;-71
2022/06/28 09:06:02;;;;;;;;;;;;;;;22.87;96.65;102074.38;5293850;28;20007;-72
2022/06/28 09:08:34;;;;;;;;;;;;;;;23.01;100.00;102072.78;5297347;28;19919;-71
2022/06/28 09:11:05;;;;;;;;;;;;;;;23.09;93.33;102082.56;5291730;28;19918;-72
2022/06/28 09:13:37;;;;;;;;;;;;;;;23.18;99.75;102076.94;5295577;28;19912;-70
2022/06/28 09:16:08;;;;;;;;;;;;;;;23.28;93.24;102069.47;5296197;28;19951;-71
2022/06/28 09:18:39;;;;;;;;;;;;;;;23.39;94.75;102068.19;5296505;28;19936;-70
2022/06/28 09:21:12;;;;;;;;;;;;;;;23.42;92.09;102062.47;5294380;28;19919;-70
2022/06/28 09:23:50;;;;;;;;;;;;;;;23.50;95.84;102062.38;5295723;28;20369;-71
2022/06/28 09:26:21;;;;;;;;;;;;;;;23.63;95.25;102058.19;5292455;28;20039;-70
2022/06/28 09:28:53;;;;;;;;;;;;;;;23.77;97.96;102060.06;5276161;28;20160;-72
2022/06/28 09:31:26;;;;;;;;;;;;;;;23.84;97.73;102050.28;5298741;28;19923;-72
2022/06/28 09:34:00;;;;;;;;;;;;;;;23.94;87.29;102045.44;5297156;28;19927;-72
2022/06/28 09:36:36;;;;;;;;;;;;;;;24.09;98.18;102037.34;5296761;28;19912;-72
2022/06/28 09:39:11;;;;;;;;;;;;;;;24.12;90.72;102042.31;5291350;28;19916;-72
2022/06/28 09:41:49;;;;;;;;;;;;;;;24.17;96.69;102041.75;5294334;28;19915;-72
2022/06/28 09:44:29;;;;;;;;;;;;;;;24.19;78.41;102048.56;5277665;28;20369;-72
2022/06/28 09:47:00;;;;;;;;;;;;;;;24.30;81.43;102041.06;5297519;28;19956;-72
2022/06/28 09:49:32;;;;;;;;;;;;;;;24.36;75.94;102035.78;5293883;28;19920;-72
2022/06/28 09:52:04;;;;;;;;;;;;;;;24.42;78.77;102035.00;5297557;28;19920;-72
2022/06/28 09:54:37;;;;;;;;;;;;;;;24.48;76.80;102028.91;5295679;28;19964;-73
2022/06/28 09:57:11;;;;;;;;;;;;;;;24.58;76.28;102017.00;5293256;28;19923;-73
2022/06/28 09:59:43;;;;;;;;;;;;;;;24.61;75.28;102009.41;5293628;28;20552;-74
2022/06/28 10:02:15;;;;;;;;;;;;;;;24.71;74.08;102017.13;5294645;28;19921;-74
2022/06/28 10:04:47;;;;;;;;;;;;;;;24.80;68.68;102020.47;5296135;28;20369;-74
2022/06/28 10:07:19;;;;;;;;;;;;;;;24.87;69.25;102019.50;5294971;28;19919;-74
2022/06/28 10:09:50;;;;;;;;;;;;;;;24.98;68.27;102016.25;5296220;28;20006;-74
2022/06/28 10:15:16;;;;;;;;;;;;;;;25.09;61.50;102014.06;5292196;28;19913;-74
2022/06/28 10:18:06;;;;;;;;;;;;;;;25.11;63.80;102006.66;5292456;28;20295;-70
2022/06/28 10:20:39;;;;;;;;;;;;;;;25.17;59.96;102013.94;5294762;28;19911;-71
2022/06/28 10:23:26;;;;;;;;;;;;;;;25.27;58.29;102017.09;5291583;28;19958;-71
2022/06/28 10:26:06;;;;;;;;;;;;;;;25.42;59.70;102012.41;5296355;28;19916;-70
2022/06/28 10:28:38;;;;;;;;;;;;;;;25.46;56.15;102012.84;5294637;28;19916;-73
2022/06/28 10:31:21;;;;;;;;;;;;;;;25.47;52.45;102009.13;5294376;28;19969;-70
2022/06/28 10:33:53;;;;;;;;;;;;;;;25.50;53.39;101999.84;5296870;28;19950;-71
2022/06/28 10:36:26;;;;;;;;;;;;;;;25.46;57.09;101992.19;5294449;28;19965;-71
2022/06/28 10:39:09;;;;;;;;;;;;;;;25.48;56.40;101984.75;5296036;28;19951;-71
2022/06/28 10:41:43;;;;;;;;;;;;;;;25.55;54.15;101989.31;5295651;28;19912;-70
2022/06/28 10:44:21;;;;;;;;;;;;;;;25.47;56.70;101987.66;5279075;28;20011;-72
2022/06/28 10:46:52;;;;;;;;;;;;;;;25.48;50.91;101983.94;5295498;28;19916;-72
2022/06/28 10:49:24;;;;;;;;;;;;;;;25.52;47.57;101979.00;5294754;28;19916;-72
2022/06/28 10:52:09;;;;;;;;;;;;;;;25.58;50.93;101980.88;5289919;28;20548;-71
2022/06/28 10:54:53;;;;;;;;;;;;;;;25.75;52.70;101973.25;5293839;28;20049;-71
2022/06/28 10:57:27;;;;;;;;;;;;;;;25.91;50.72;101965.69;5318115;22;20018;-70
2022/06/28 10:59:59;;;;;;;;;;;;;;;26.07;50.08;101963.66;5296120;28;19927;-70
2022/06/28 11:02:49;;;;;;;;;;;;;;;26.22;51.59;101971.50;5303122;28;19912;-67
2022/06/28 11:05:21;;;;;;;;;;;;;;;26.30;50.03;101977.50;5306118;28;19919;-68
2022/06/28 11:07:56;;;;;;;;;;;;;;;26.29;49.42;101964.25;5290136;28;20350;-69
2022/06/28 11:10:28;;;;;;;;;;;;;;;26.26;50.38;101957.44;5305154;28;19935;-69
2022/06/28 11:13:17;;;;;;;;;;;;;;;26.24;46.54;101948.75;5309472;28;20448;-69
2022/06/28 11:15:49;;;;;;;;;;;;;;;26.34;48.09;101946.50;5283733;28;19916;-68
2022/06/28 11:18:20;;;;;;;;;;;;;;;26.46;46.54;101941.34;5302565;28;19929;-68
2022/06/28 11:23:38;;;;;;;3.83;1.20;;;;;;;25.43;45.47;101946.16;5281532;28;20360;-70
2022/06/28 11:29:03;;;;;;;2.92;1.00;;;;;;;25.25;45.08;101941.34;5281322;28;20115;-70
2022/06/28 11:31:44;;;;;;;3.43;1.20;;;;;;;25.55;46.06;101933.78;5282510;28;20104;-70
2022/06/28 11:34:25;;;;;;;3.05;1.13;;;;;;;25.71;45.70;101933.41;5282504;28;20036;-69
2022/06/28 11:36:57;;;;;;;2.40;0.90;;;;;;;25.80;44.58;101936.78;5285009;28;20111;-69
2022/06/28 11:39:28;;;;;;;3.63;0.90;;;;;;;25.88;47.26;101936.56;5281863;28;20115;-71
2022/06/28 11:41:59;;;;;;;4.43;1.20;;;;;;;26.04;46.25;101919.22;5284620;28;20021;-71
2022/06/28 11:44:31;;;;;;;2.37;1.00;;;;;;;26.29;46.34;101916.75;5281801;28;20049;-69
2022/06/28 11:47:03;;;;;;;4.27;1.27;;;;;;;26.26;45.05;101932.44;5280398;28;20024;-70
2022/06/28 11:49:34;;;;;;;3.42;1.13;;;;;;;26.13;42.55;101930.56;5283590;28;20025;-70
2022/06/28 11:52:05;;;;;;;3.20;1.07;;;;;;;25.95;42.79;101918.63;5282665;28;20024;-69
2022/06/28 11:54:37;;;;;;;1.83;0.83;;;;;;;26.11;43.74;101917.38;5282556;28;20040;-71
2022/06/28 11:57:13;;;;;;;3.07;1.10;;;;;;;26.46;42.80;101924.38;5283279;28;20074;-71
2022/06/28 11:59:57;;;;;;;3.17;0.93;;;;;;;26.54;40.98;101922.28;5284106;28;20504;-69
2022/06/28 12:02:49;;;;;;;4.75;0.93;;;;;;;26.59;42.27;101927.03;5282562;28;20025;-70
2022/06/28 12:05:35;;;;;;;5.93;1.33;;;;;;;26.71;41.66;101920.00;5283086;28;20032;-71
2022/06/28 12:08:07;;;;;;;3.63;1.10;;;;;;;26.28;40.08;101922.31;5283644;28;20016;-70
2022/06/28 12:10:39;;;;;;;4.18;0.95;;;;;;;26.30;40.08;101918.38;5280667;28;20025;-71
2022/06/28 12:13:14;;;;;;;2.77;1.10;;;;;;;26.42;39.73;101922.09;5284948;28;20085;-69
2022/06/28 12:15:46;;;;;;;4.35;1.20;;;;;;;26.53;40.42;101920.66;5281750;28;20135;-71
2022/06/28 12:18:17;;;;;;;3.38;1.10;;;;;;;26.86;41.67;101919.75;5281037;28;20055;-69
2022/06/28 12:20:57;;;;;;;7.07;1.23;;;;;;;27.20;42.62;101909.69;5280909;28;20070;-71
2022/06/28 12:23:28;;;;;;;4.30;1.10;;;;;;;26.89;40.52;101909.38;5282429;28;20068;-69
2022/06/28 12:26:00;;;;;;;4.07;1.20;;;;;;;26.58;40.28;101914.63;5280854;28;20058;-71
2022/06/28 12:28:32;;;;;;;3.17;1.05;;;;;;;26.48;38.74;101914.25;5281485;28;20489;-71
2022/06/28 12:31:03;;;;;;;4.03;1.00;;;;;;;26.62;40.59;101908.63;5281592;28;20024;-71
2022/06/28 12:33:34;;;;;;;4.70;1.13;;;;;;;26.40;39.66;101901.81;5275452;28;20108;-71
2022/06/28 12:36:05;;;;;;;3.97;1.00;;;;;;;26.85;38.87;101894.69;5267820;28;20028;-69
2022/06/28 12:38:37;;;;;;;6.07;1.30;;;;;;;27.09;38.84;101901.25;5266745;28;20028;-70
2022/06/28 12:41:08;;;;;;;3.60;1.20;;;;;;;27.08;38.48;101902.25;5268666;28;20069;-71
2022/06/28 12:43:39;;;;;;;2.47;0.87;;;;;;;27.35;37.48;101902.16;5268647;28;20379;-70
2022/06/28 12:46:11;;;;;;;3.20;0.80;;;;;;;27.27;37.62;101897.84;5268705;28;20413;-70
2022/06/28 12:48:42;;;;;;;3.40;1.00;;;;;;;27.49;37.19;101887.56;5268368;28;20495;-70
2022/06/28 12:51:13;;;;;;;2.93;1.00;;;;;;;27.55;37.01;101893.97;5263791;28;20036;-71
2022/06/28 12:53:44;;;;;;;3.33;1.23;;;;;;;27.80;37.57;101886.75;5268221;28;20158;-71
2022/06/28 12:56:16;;;;;;;1.93;0.90;;;;;;;27.59;35.59;101887.09;5267695;28;20033;-70
2022/06/28 12:58:48;;;;;;;3.03;1.00;;;;;;;27.30;35.91;101889.34;5265984;28;20033;-71
2022/06/28 13:01:21;;;;;;;4.13;1.17;;;;;;;27.17;37.07;101889.44;5267042;28;20520;-70
2022/06/28 13:03:53;;;;;;;2.75;0.80;;;;;;;27.30;38.14;101880.44;5268329;28;20082;-69